createdAt,value
2019-05-13T00:00:04.930Z,1.98
2019-05-13T00:00:38.707Z,1.90
2019-05-13T00:01:14.380Z,1.65
2019-05-13T00:01:47.964Z,2.00
2019-05-13T00:02:24.009Z,2.42
2019-05-13T00:02:57.430Z,2.58
2019-05-13T00:03:32.986Z,1.47
2019-05-13T00:04:06.710Z,1.70
2019-05-13T00:04:40.629Z,2.00
2019-05-13T00:05:14.919Z,2.00
2019-05-13T00:05:48.467Z,2.20
2019-05-13T00:06:23.808Z,1.62
2019-05-13T00:06:58.027Z,1.90
2019-05-13T00:07:34.211Z,1.80
2019-05-13T00:08:07.685Z,1.85
2019-05-13T00:08:43.857Z,1.75
2019-05-13T00:09:17.030Z,1.82
2019-05-13T00:09:50.952Z,1.77
2019-05-13T00:10:24.646Z,1.90
2019-05-13T00:10:58.320Z,1.87
2019-05-13T00:11:34.503Z,1.60
2019-05-13T00:12:07.819Z,1.57
2019-05-13T00:12:41.397Z,1.95
2019-05-13T00:13:15.254Z,2.00
2019-05-13T00:13:49.129Z,2.08
2019-05-13T00:14:23.966Z,1.87
2019-05-13T00:14:57.836Z,1.90
2019-05-13T00:15:34.095Z,1.50
2019-05-13T00:16:07.190Z,2.33
2019-05-13T00:16:41.041Z,1.60
2019-05-13T00:17:14.813Z,1.95
2019-05-13T00:17:48.521Z,2.20
2019-05-13T00:18:23.558Z,1.95
2019-05-13T00:18:57.525Z,1.90
2019-05-13T00:19:33.733Z,1.70
2019-05-13T00:20:07.332Z,1.85
2019-05-13T00:20:41.204Z,1.55
2019-05-13T00:21:14.876Z,2.15
2019-05-13T00:21:48.555Z,1.72
2019-05-13T00:22:23.452Z,2.25
2019-05-13T00:22:57.288Z,1.80
2019-05-13T00:23:33.766Z,1.98
2019-05-13T00:24:09.194Z,2.00
2019-05-13T00:24:44.315Z,1.85
2019-05-13T00:25:18.330Z,1.55
2019-05-13T00:25:54.394Z,1.80
2019-05-13T00:26:27.422Z,1.82
2019-05-13T00:27:03.690Z,1.87
2019-05-13T00:27:36.955Z,1.80
2019-05-13T00:28:10.815Z,1.65
2019-05-13T00:28:44.501Z,1.72
2019-05-13T00:29:18.461Z,2.40
2019-05-13T00:29:53.418Z,1.70
2019-05-13T00:30:27.657Z,1.90
2019-05-13T00:31:03.270Z,2.00
2019-05-13T00:31:36.857Z,1.75
2019-05-13T00:32:10.843Z,1.80
2019-05-13T00:32:44.847Z,2.30
2019-05-13T00:33:18.370Z,2.20
2019-05-13T00:33:53.239Z,1.82
2019-05-13T00:34:27.197Z,1.90
2019-05-13T00:35:00.938Z,2.22
2019-05-13T00:35:34.611Z,2.22
2019-05-13T00:36:08.558Z,2.27
2019-05-13T00:36:44.368Z,1.80
2019-05-13T00:37:17.958Z,2.58
2019-05-13T00:37:51.639Z,1.92
2019-05-13T00:38:25.345Z,2.02
2019-05-13T00:38:59.210Z,1.60
2019-05-13T00:39:33.787Z,1.52
2019-05-13T00:40:07.516Z,2.20
2019-05-13T00:40:44.088Z,1.70
2019-05-13T00:41:17.445Z,2.10
2019-05-13T00:41:52.860Z,1.85
2019-05-13T00:42:26.573Z,1.60
2019-05-13T00:43:00.440Z,1.95
2019-05-13T00:43:34.256Z,1.98
2019-05-13T00:44:08.306Z,1.75
2019-05-13T00:44:44.307Z,1.80
2019-05-13T00:45:17.836Z,2.40
2019-05-13T00:45:53.259Z,1.92
2019-05-13T00:46:27.442Z,2.22
2019-05-13T00:47:00.944Z,1.75
2019-05-13T00:47:34.838Z,1.98
2019-05-13T00:48:08.705Z,2.15
2019-05-13T00:48:43.922Z,2.00
2019-05-13T00:49:18.021Z,2.20
2019-05-13T00:49:54.081Z,2.40
2019-05-13T00:50:28.077Z,1.80
2019-05-13T00:51:03.839Z,1.92
2019-05-13T00:51:37.372Z,1.90
2019-05-13T00:52:11.067Z,1.87
2019-05-13T00:52:45.117Z,1.50
2019-05-13T00:53:19.092Z,1.77
2019-05-13T00:53:53.654Z,1.90
2019-05-13T00:54:27.828Z,1.75
2019-05-13T00:55:04.093Z,2.42
2019-05-13T00:55:37.071Z,2.42
2019-05-13T00:56:10.734Z,1.60
2019-05-13T00:56:44.592Z,2.05
2019-05-13T00:57:18.274Z,1.45
2019-05-13T00:57:54.095Z,2.10
2019-05-13T00:58:27.626Z,2.45
2019-05-13T00:59:03.663Z,1.67
2019-05-13T00:59:36.915Z,1.95
2019-05-13T01:00:11.053Z,2.27
2019-05-13T01:00:44.691Z,1.90
2019-05-13T01:01:18.804Z,2.15
2019-05-13T01:01:53.346Z,2.00
2019-05-13T01:02:27.363Z,2.15
2019-05-13T01:03:01.050Z,2.27
2019-05-13T01:03:35.043Z,2.00
2019-05-13T01:04:08.722Z,1.55
2019-05-13T01:04:44.180Z,2.20
2019-05-13T01:05:18.035Z,1.85
2019-05-13T01:05:53.558Z,1.67
2019-05-13T01:06:27.331Z,1.70
2019-05-13T01:07:04.358Z,1.82
2019-05-13T01:07:38.293Z,2.08
2019-05-13T01:08:14.286Z,1.67
2019-05-13T01:08:47.773Z,1.95
2019-05-13T01:09:23.570Z,1.85
2019-05-13T01:09:56.903Z,2.05
2019-05-13T01:10:30.870Z,1.70
2019-05-13T01:11:04.555Z,1.70
2019-05-13T01:11:38.489Z,2.05
2019-05-13T01:12:13.371Z,2.30
2019-05-13T01:12:48.807Z,1.67
2019-05-13T01:13:23.749Z,2.67
2019-05-13T01:13:57.915Z,1.50
2019-05-13T01:14:31.425Z,1.95
2019-05-13T01:15:07.548Z,2.25
2019-05-13T01:15:44.089Z,1.98
2019-05-13T01:16:16.943Z,1.77
2019-05-13T01:16:50.662Z,2.00
2019-05-13T01:17:24.584Z,1.77
2019-05-13T01:17:58.278Z,1.77
2019-05-13T01:18:34.038Z,2.00
2019-05-13T01:19:07.728Z,1.70
2019-05-13T01:19:43.286Z,1.92
2019-05-13T01:20:17.752Z,2.02
2019-05-13T01:20:53.655Z,2.40
2019-05-13T01:21:26.832Z,1.95
2019-05-13T01:22:00.697Z,1.90
2019-05-13T01:22:34.594Z,1.77
2019-05-13T01:23:08.301Z,2.15
2019-05-13T01:23:43.882Z,1.72
2019-05-13T01:24:17.637Z,1.52
2019-05-13T01:24:51.334Z,1.75
2019-05-13T01:25:25.942Z,1.98
2019-05-13T01:25:59.814Z,1.90
2019-05-13T01:26:33.751Z,1.98
2019-05-13T01:27:07.938Z,2.20
2019-05-13T01:27:43.997Z,1.77
2019-05-13T01:28:17.020Z,1.60
2019-05-13T01:28:50.908Z,2.15
2019-05-13T01:29:24.778Z,1.80
2019-05-13T01:29:58.451Z,2.40
2019-05-13T01:30:34.697Z,2.15
2019-05-13T01:31:08.765Z,1.70
2019-05-13T01:31:43.419Z,2.40
2019-05-13T01:32:17.624Z,1.95
2019-05-13T01:32:53.865Z,1.20
2019-05-13T01:33:26.696Z,2.20
2019-05-13T01:34:00.614Z,2.33
2019-05-13T01:34:34.507Z,1.90
2019-05-13T01:35:08.328Z,2.12
2019-05-13T01:35:44.342Z,1.70
2019-05-13T01:36:17.834Z,2.30
2019-05-13T01:36:53.411Z,1.65
2019-05-13T01:37:39.086Z,1.95
2019-05-13T01:38:04.535Z,1.70
2019-05-13T01:38:37.857Z,1.90
2019-05-13T01:39:13.869Z,1.80
2019-05-13T01:39:47.303Z,1.70
2019-05-13T01:40:20.992Z,1.50
2019-05-13T01:40:54.933Z,1.77
2019-05-13T01:41:28.867Z,1.50
2019-05-13T01:42:03.668Z,1.50
2019-05-13T01:42:37.806Z,1.60
2019-05-13T01:43:14.145Z,1.75
2019-05-13T01:43:47.084Z,2.10
2019-05-13T01:44:20.776Z,1.67
2019-05-13T01:44:54.674Z,1.80
2019-05-13T01:45:29.027Z,1.57
2019-05-13T01:46:04.494Z,2.10
2019-05-13T01:46:38.437Z,1.85
2019-05-13T01:47:13.444Z,1.70
2019-05-13T01:47:47.393Z,1.90
2019-05-13T01:48:21.319Z,1.90
2019-05-13T01:48:54.805Z,1.95
2019-05-13T01:49:28.658Z,1.80
2019-05-13T01:50:04.106Z,1.65
2019-05-13T01:50:38.986Z,1.62
2019-05-13T01:51:13.826Z,1.92
2019-05-13T01:51:47.902Z,1.77
2019-05-13T01:52:23.652Z,2.00
2019-05-13T01:52:57.162Z,1.62
2019-05-13T01:53:49.962Z,2.10
2019-05-13T01:54:24.795Z,1.65
2019-05-13T01:54:58.922Z,2.22
2019-05-13T01:55:34.196Z,2.05
2019-05-13T01:56:07.958Z,1.50
2019-05-13T01:56:43.955Z,2.27
2019-05-13T01:57:17.386Z,1.90
2019-05-13T01:57:53.208Z,1.70
2019-05-13T01:58:26.466Z,2.20
2019-05-13T01:59:03.441Z,2.33
2019-05-13T01:59:36.395Z,1.80
2019-05-13T02:00:10.578Z,2.02
2019-05-13T02:00:44.607Z,1.80
2019-05-13T02:01:18.613Z,1.90
2019-05-13T02:01:54.113Z,1.60
2019-05-13T02:02:28.223Z,2.25
2019-05-13T02:03:03.946Z,2.10
2019-05-13T02:03:37.296Z,2.10
2019-05-13T02:04:11.141Z,1.55
2019-05-13T02:04:44.885Z,1.90
2019-05-13T02:05:18.629Z,2.12
2019-05-13T02:05:54.383Z,2.20
2019-05-13T02:06:27.921Z,1.90
2019-05-13T02:07:04.159Z,1.70
2019-05-13T02:07:37.171Z,2.37
2019-05-13T02:08:10.792Z,1.72
2019-05-13T02:08:44.595Z,1.70
2019-05-13T02:09:18.534Z,2.02
2019-05-13T02:09:53.381Z,1.60
2019-05-13T02:10:45.039Z,2.00
2019-05-13T02:11:19.011Z,2.05
2019-05-13T02:11:53.857Z,2.20
2019-05-13T02:12:27.741Z,2.22
2019-05-13T02:13:03.842Z,2.30
2019-05-13T02:13:37.093Z,1.98
2019-05-13T02:14:13.169Z,2.40
2019-05-13T02:14:46.492Z,2.00
2019-05-13T02:15:20.414Z,2.30
2019-05-13T02:15:55.464Z,2.08
2019-05-13T02:16:29.592Z,2.40
2019-05-13T02:17:04.247Z,2.42
2019-05-13T02:17:38.547Z,1.90
2019-05-13T02:18:13.475Z,1.50
2019-05-13T02:18:47.483Z,2.47
2019-05-13T02:19:21.163Z,2.42
2019-05-13T02:19:55.036Z,2.10
2019-05-13T02:20:28.782Z,2.67
2019-05-13T02:21:05.422Z,2.17
2019-05-13T02:21:38.089Z,3.92
2019-05-13T02:22:14.393Z,2.60
2019-05-13T02:22:49.070Z,2.05
2019-05-13T02:23:23.895Z,1.80
2019-05-13T02:23:57.822Z,1.85
2019-05-13T02:24:33.506Z,2.37
2019-05-13T02:25:07.727Z,1.92
2019-05-13T02:25:43.472Z,2.08
2019-05-13T02:26:16.879Z,2.05
2019-05-13T02:26:50.759Z,1.80
2019-05-13T02:27:25.502Z,2.10
2019-05-13T02:27:59.485Z,1.98
2019-05-13T02:28:33.504Z,2.10
2019-05-13T02:29:07.335Z,2.65
2019-05-13T02:29:43.509Z,2.50
2019-05-13T02:30:16.840Z,2.02
2019-05-13T02:30:50.399Z,1.85
2019-05-13T02:31:39.024Z,2.12
2019-05-13T02:32:02.799Z,2.42
2019-05-13T02:32:35.332Z,2.10
2019-05-13T02:33:12.898Z,2.17
2019-05-13T02:33:44.832Z,2.25
2019-05-13T02:34:18.507Z,2.05
2019-05-13T02:34:53.223Z,2.40
2019-05-13T02:35:27.318Z,2.60
2019-05-13T02:36:03.047Z,2.58
2019-05-13T02:36:36.623Z,2.17
2019-05-13T02:37:12.800Z,2.15
2019-05-13T02:37:45.711Z,1.50
2019-05-13T02:38:28.295Z,1.90
2019-05-13T02:38:55.102Z,2.40
2019-05-13T02:39:28.891Z,1.67
2019-05-13T02:40:03.515Z,1.95
2019-05-13T02:40:37.896Z,1.92
2019-05-13T02:41:13.420Z,2.20
2019-05-13T02:41:47.828Z,2.52
2019-05-13T02:42:22.880Z,2.20
2019-05-13T02:42:57.079Z,1.80
2019-05-13T02:43:33.299Z,1.60
2019-05-13T02:44:06.675Z,2.45
2019-05-13T02:44:43.487Z,1.72
2019-05-13T02:45:15.740Z,1.70
2019-05-13T02:45:52.803Z,2.12
2019-05-13T02:46:44.637Z,1.82
2019-05-13T02:47:18.733Z,2.00
2019-05-13T02:47:52.868Z,2.15
2019-05-13T02:48:26.566Z,2.50
2019-05-13T02:49:03.086Z,1.90
2019-05-13T02:49:35.883Z,2.40
2019-05-13T02:50:12.235Z,1.82
2019-05-13T02:50:45.185Z,1.90
2019-05-13T02:51:18.938Z,1.95
2019-05-13T02:51:54.724Z,2.10
2019-05-13T02:52:28.427Z,2.60
2019-05-13T02:53:02.645Z,2.37
2019-05-13T02:53:36.307Z,1.67
2019-05-13T02:54:12.396Z,2.20
2019-05-13T02:54:45.847Z,2.10
2019-05-13T02:55:22.147Z,2.58
2019-05-13T02:55:54.944Z,2.33
2019-05-13T02:56:28.837Z,2.37
2019-05-13T02:57:03.657Z,1.82
2019-05-13T02:57:38.182Z,2.15
2019-05-13T02:58:12.515Z,3.05
2019-05-13T02:58:46.518Z,2.00
2019-05-13T02:59:22.722Z,2.75
2019-05-13T02:59:55.968Z,2.85
2019-05-13T03:00:32.616Z,2.15
2019-05-13T03:01:05.073Z,1.77
2019-05-13T03:01:38.940Z,2.35
2019-05-13T03:02:12.849Z,1.90
2019-05-13T03:02:46.568Z,1.90
2019-05-13T03:03:23.141Z,1.90
2019-05-13T03:03:55.842Z,2.05
2019-05-13T03:04:32.610Z,2.20
2019-05-13T03:05:05.136Z,2.70
2019-05-13T03:05:38.881Z,1.80
2019-05-13T03:06:13.475Z,2.60
2019-05-13T03:06:47.595Z,2.62
2019-05-13T03:07:23.259Z,2.25
2019-05-13T03:07:56.778Z,2.70
2019-05-13T03:08:40.949Z,1.67
2019-05-13T03:09:07.559Z,2.05
2019-05-13T03:09:42.276Z,2.00
2019-05-13T03:10:16.281Z,2.25
2019-05-13T03:10:52.750Z,1.75
2019-05-13T03:11:25.646Z,1.90
2019-05-13T03:11:59.371Z,1.85
2019-05-13T03:12:33.147Z,2.85
2019-05-13T03:13:07.057Z,2.40
2019-05-13T03:13:42.587Z,2.55
2019-05-13T03:14:16.117Z,2.10
2019-05-13T03:14:53.065Z,1.70
2019-05-13T03:15:26.902Z,2.20
2019-05-13T03:16:07.905Z,2.22
2019-05-13T03:17:07.405Z,1.82
2019-05-13T03:18:03.198Z,1.70
2019-05-13T03:18:35.398Z,2.45
2019-05-13T03:19:09.322Z,2.77
2019-05-13T03:19:43.533Z,2.15
2019-05-13T03:20:17.606Z,2.35
2019-05-13T03:20:52.967Z,2.40
2019-05-13T03:21:27.114Z,2.10
2019-05-13T03:22:03.116Z,2.08
2019-05-13T03:22:55.379Z,2.60
2019-05-13T03:23:32.428Z,2.30
2019-05-13T03:24:04.812Z,2.17
2019-05-13T03:24:38.660Z,2.20
2019-05-13T03:25:13.188Z,2.20
2019-05-13T03:25:47.220Z,2.40
2019-05-13T03:26:23.472Z,1.80
2019-05-13T03:26:56.723Z,2.30
2019-05-13T03:27:33.791Z,2.35
2019-05-13T03:28:05.839Z,2.10
2019-05-13T03:28:43.099Z,1.75
2019-05-13T03:29:15.033Z,2.85
2019-05-13T03:29:53.085Z,2.00
2019-05-13T03:30:26.369Z,2.40
2019-05-13T03:31:05.435Z,2.25
2019-05-13T03:31:36.547Z,2.30
2019-05-13T03:32:16.049Z,2.42
2019-05-13T03:32:53.050Z,2.20
2019-05-13T03:33:27.286Z,2.05
2019-05-13T03:33:57.131Z,2.45
2019-05-13T03:34:35.965Z,2.17
2019-05-13T03:35:08.271Z,2.98
2019-05-13T03:35:45.659Z,2.22
2019-05-13T03:36:18.104Z,1.90
2019-05-13T03:36:57.087Z,2.62
2019-05-13T03:37:28.596Z,2.65
2019-05-13T03:38:03.521Z,2.20
2019-05-13T03:38:58.130Z,2.35
2019-05-13T03:39:16.292Z,1.95
2019-05-13T03:39:52.157Z,2.70
2019-05-13T03:40:24.626Z,2.55
2019-05-13T03:40:58.610Z,2.52
2019-05-13T03:41:33.066Z,2.10
2019-05-13T03:42:07.109Z,2.30
2019-05-13T03:42:43.229Z,2.50
2019-05-13T03:43:18.067Z,2.30
2019-05-13T03:43:53.507Z,2.55
2019-05-13T03:44:32.235Z,2.37
2019-05-13T03:45:04.773Z,2.70
2019-05-13T03:45:39.072Z,2.17
2019-05-13T03:46:12.884Z,2.30
2019-05-13T03:46:48.057Z,2.90
2019-05-13T03:47:23.664Z,2.20
2019-05-13T03:47:59.420Z,2.72
2019-05-13T03:48:34.570Z,2.22
2019-05-13T03:49:13.928Z,2.35
2019-05-13T03:49:47.465Z,2.50
2019-05-13T03:50:22.603Z,2.90
2019-05-13T03:50:56.601Z,2.47
2019-05-13T03:51:32.627Z,2.95
2019-05-13T03:52:06.068Z,2.10
2019-05-13T03:52:43.115Z,2.35
2019-05-13T03:53:15.760Z,1.98
2019-05-13T03:53:53.244Z,2.50
2019-05-13T03:54:25.367Z,2.70
2019-05-13T03:55:02.884Z,2.40
2019-05-13T03:55:34.539Z,2.22
2019-05-13T03:56:08.484Z,2.72
2019-05-13T03:56:42.723Z,3.05
2019-05-13T03:57:17.567Z,2.62
2019-05-13T03:57:53.297Z,2.30
2019-05-13T03:58:28.307Z,2.05
2019-05-13T03:59:02.861Z,2.65
2019-05-13T03:59:37.095Z,1.95
2019-05-13T04:00:13.103Z,2.25
2019-05-13T04:00:46.525Z,1.92
2019-05-13T04:01:22.433Z,2.40
2019-05-13T04:01:56.644Z,2.17
2019-05-13T04:02:32.537Z,1.82
2019-05-13T04:03:06.014Z,2.90
2019-05-13T04:03:43.524Z,2.20
2019-05-13T04:04:15.359Z,2.10
2019-05-13T04:04:49.142Z,3.00
2019-05-13T04:05:23.722Z,2.50
2019-05-13T04:05:57.601Z,2.40
2019-05-13T04:06:32.330Z,2.85
2019-05-13T04:07:06.591Z,2.58
2019-05-13T04:07:43.454Z,2.75
2019-05-13T04:08:16.093Z,2.37
2019-05-13T04:08:53.559Z,2.40
2019-05-13T04:09:31.125Z,2.72
2019-05-13T04:10:03.437Z,2.02
2019-05-13T04:10:36.574Z,2.35
2019-05-13T04:11:12.575Z,2.05
2019-05-13T04:11:45.648Z,2.62
2019-05-13T04:12:22.588Z,2.33
2019-05-13T04:12:54.929Z,2.37
2019-05-13T04:13:28.912Z,2.98
2019-05-13T04:14:03.282Z,3.77
2019-05-13T04:14:37.434Z,2.17
2019-05-13T04:15:12.634Z,3.20
2019-05-13T04:15:46.838Z,2.47
2019-05-13T04:16:23.711Z,2.05
2019-05-13T04:16:56.010Z,2.30
2019-05-13T04:17:32.039Z,2.60
2019-05-13T04:18:05.912Z,2.27
2019-05-13T04:18:42.338Z,2.20
2019-05-13T04:19:15.197Z,2.67
2019-05-13T04:19:52.979Z,2.10
2019-05-13T04:20:26.031Z,2.52
2019-05-13T04:21:02.826Z,2.58
2019-05-13T04:21:35.196Z,3.00
2019-05-13T04:22:09.069Z,2.52
2019-05-13T04:22:42.969Z,2.20
2019-05-13T04:23:16.758Z,2.85
2019-05-13T04:23:53.001Z,2.45
2019-05-13T04:24:27.549Z,2.98
2019-05-13T04:25:02.443Z,2.70
2019-05-13T04:25:39.653Z,2.15
2019-05-13T04:26:14.912Z,2.30
2019-05-13T04:26:47.955Z,2.75
2019-05-13T04:27:23.322Z,3.17
2019-05-13T04:27:57.532Z,2.00
2019-05-13T04:28:33.022Z,2.75
2019-05-13T04:29:06.843Z,2.12
2019-05-13T04:29:43.251Z,2.60
2019-05-13T04:30:16.123Z,2.60
2019-05-13T04:30:52.564Z,2.40
2019-05-13T04:31:25.901Z,3.27
2019-05-13T04:32:02.277Z,2.83
2019-05-13T04:32:35.025Z,2.27
2019-05-13T04:33:09.683Z,2.20
2019-05-13T04:33:43.398Z,2.40
2019-05-13T04:34:17.238Z,3.30
2019-05-13T04:34:52.895Z,2.35
2019-05-13T04:35:26.383Z,2.60
2019-05-13T04:36:02.619Z,2.10
2019-05-13T04:36:36.197Z,2.60
2019-05-13T04:37:12.928Z,3.10
2019-05-13T04:37:45.377Z,2.50
2019-05-13T04:38:22.701Z,3.08
2019-05-13T04:38:55.433Z,3.20
2019-05-13T04:39:44.549Z,2.17
2019-05-13T04:40:05.788Z,2.83
2019-05-13T04:40:42.426Z,2.05
2019-05-13T04:41:15.407Z,2.15
2019-05-13T04:41:52.677Z,3.00
2019-05-13T04:42:24.786Z,3.10
2019-05-13T04:43:02.609Z,2.20
2019-05-13T04:43:35.000Z,3.10
2019-05-13T04:44:08.650Z,2.92
2019-05-13T04:44:43.145Z,2.45
2019-05-13T04:45:36.264Z,2.35
2019-05-13T04:46:13.622Z,2.72
2019-05-13T04:46:46.469Z,2.00
2019-05-13T04:47:22.993Z,3.22
2019-05-13T04:47:55.804Z,2.45
2019-05-13T04:48:29.526Z,2.77
2019-05-13T04:49:03.405Z,3.55
2019-05-13T04:49:37.088Z,3.45
2019-05-13T04:50:12.790Z,2.60
2019-05-13T04:50:46.364Z,3.12
2019-05-13T04:51:22.625Z,2.90
2019-05-13T04:51:55.728Z,2.98
2019-05-13T04:52:32.894Z,2.60
2019-05-13T04:53:05.423Z,2.65
2019-05-13T04:53:42.173Z,3.05
2019-05-13T04:54:14.912Z,2.65
2019-05-13T04:54:52.488Z,2.95
2019-05-13T04:55:24.172Z,2.75
2019-05-13T04:55:58.148Z,2.20
2019-05-13T04:56:32.985Z,2.87
2019-05-13T04:57:07.217Z,2.40
2019-05-13T04:57:42.453Z,3.10
2019-05-13T04:58:16.200Z,2.50
2019-05-13T04:58:52.765Z,2.62
2019-05-13T04:59:25.764Z,2.85
2019-05-13T04:59:59.266Z,3.42
2019-05-13T05:01:07.541Z,2.65
2019-05-13T05:01:48.797Z,2.27
2019-05-13T05:02:29.543Z,3.30
2019-05-13T05:03:03.775Z,3.33
2019-05-13T05:03:45.941Z,2.02
2019-05-13T05:04:27.699Z,3.25
2019-05-13T05:05:03.795Z,2.27
2019-05-13T05:05:48.761Z,2.55
2019-05-13T05:06:42.537Z,2.67
2019-05-13T05:07:42.131Z,2.65
2019-05-13T05:08:36.412Z,2.60
2019-05-13T05:09:28.556Z,2.60
2019-05-13T05:10:30.228Z,2.30
2019-05-13T05:11:25.900Z,3.12
2019-05-13T05:12:17.790Z,2.90
2019-05-13T05:13:16.291Z,2.70
2019-05-13T05:14:12.347Z,2.30
2019-05-13T05:14:58.076Z,2.30
2019-05-13T05:15:43.570Z,2.40
2019-05-13T05:16:28.927Z,2.35
2019-05-13T05:17:33.960Z,2.52
2019-05-13T05:18:25.232Z,2.00
2019-05-13T05:19:04.529Z,2.27
2019-05-13T05:19:55.856Z,2.70
2019-05-13T05:20:33.540Z,3.52
2019-05-13T05:21:11.942Z,3.35
2019-05-13T05:22:02.908Z,2.58
2019-05-13T05:22:48.014Z,3.00
2019-05-13T05:23:42.315Z,3.40
2019-05-13T05:24:22.159Z,2.98
2019-05-13T05:25:23.085Z,2.98
2019-05-13T05:26:24.867Z,4.15
2019-05-13T05:27:12.122Z,3.25
2019-05-13T05:27:51.548Z,2.72
2019-05-13T05:28:47.433Z,2.80
2019-05-13T05:29:29.243Z,2.52
2019-05-13T05:30:24.572Z,2.60
2019-05-13T05:31:23.356Z,2.42
2019-05-13T05:32:05.410Z,2.45
2019-05-13T05:32:48.622Z,1.87
2019-05-13T05:33:35.477Z,2.30
2019-05-13T05:34:41.830Z,2.72
2019-05-13T05:35:33.307Z,3.58
2019-05-13T05:36:25.022Z,2.90
2019-05-13T05:37:24.044Z,2.45
2019-05-13T05:38:07.452Z,2.10
2019-05-13T05:38:44.575Z,3.83
2019-05-13T05:39:22.634Z,3.20
2019-05-13T05:39:58.383Z,2.70
2019-05-13T05:40:34.712Z,2.37
2019-05-13T05:41:12.114Z,3.22
2019-05-13T05:41:47.396Z,2.80
2019-05-13T05:42:22.356Z,3.22
2019-05-13T05:42:56.363Z,2.90
2019-05-13T05:43:31.530Z,2.95
2019-05-13T05:44:07.415Z,3.37
2019-05-13T05:44:42.660Z,2.83
2019-05-13T05:45:16.897Z,2.90
2019-05-13T05:45:51.333Z,2.27
2019-05-13T05:46:25.278Z,3.40
2019-05-13T05:47:02.546Z,2.75
2019-05-13T05:47:37.153Z,3.80
2019-05-13T05:48:16.938Z,2.77
2019-05-13T05:48:52.952Z,3.70
2019-05-13T05:49:27.907Z,3.25
2019-05-13T05:50:03.039Z,3.35
2019-05-13T05:50:37.720Z,4.70
2019-05-13T05:51:13.312Z,3.20
2019-05-13T05:51:51.311Z,2.70
2019-05-13T05:52:24.298Z,3.52
2019-05-13T05:52:59.138Z,3.30
2019-05-13T05:53:34.383Z,4.25
2019-05-13T05:54:13.988Z,2.77
2019-05-13T05:54:47.611Z,2.90
2019-05-13T05:55:22.861Z,4.00
2019-05-13T05:55:56.817Z,3.22
2019-05-13T05:56:32.624Z,2.50
2019-05-13T05:57:06.878Z,2.87
2019-05-13T05:57:42.074Z,3.25
2019-05-13T05:58:17.829Z,3.10
2019-05-13T05:58:52.983Z,2.83
2019-05-13T05:59:26.774Z,2.60
2019-05-13T06:00:02.262Z,4.12
2019-05-13T06:00:38.576Z,2.75
2019-05-13T06:01:13.914Z,3.12
2019-05-13T06:01:48.722Z,3.00
2019-05-13T06:02:24.131Z,3.05
2019-05-13T06:03:02.311Z,2.40
2019-05-13T06:03:36.072Z,3.65
2019-05-13T06:04:12.622Z,2.90
2019-05-13T06:04:47.366Z,3.60
2019-05-13T06:05:22.703Z,3.72
2019-05-13T06:05:56.552Z,3.75
2019-05-13T06:06:32.984Z,3.60
2019-05-13T06:07:06.267Z,2.87
2019-05-13T06:07:46.486Z,3.33
2019-05-13T06:08:22.179Z,3.15
2019-05-13T06:08:55.970Z,3.20
2019-05-13T06:09:32.041Z,3.22
2019-05-13T06:10:06.323Z,3.58
2019-05-13T06:10:49.617Z,3.70
2019-05-13T06:11:15.671Z,3.10
2019-05-13T06:11:49.547Z,2.70
2019-05-13T06:12:23.770Z,3.17
2019-05-13T06:12:58.503Z,3.80
2019-05-13T06:13:32.226Z,4.12
2019-05-13T06:14:06.189Z,3.80
2019-05-13T06:14:42.131Z,3.10
2019-05-13T06:15:15.491Z,3.50
2019-05-13T06:15:51.338Z,3.67
2019-05-13T06:16:24.750Z,3.60
2019-05-13T06:16:58.899Z,3.85
2019-05-13T06:17:32.773Z,3.90
2019-05-13T06:18:06.344Z,3.95
2019-05-13T06:18:41.565Z,3.70
2019-05-13T06:19:17.868Z,3.17
2019-05-13T06:19:51.423Z,3.75
2019-05-13T06:20:25.191Z,3.25
2019-05-13T06:21:01.587Z,3.58
2019-05-13T06:21:37.238Z,2.90
2019-05-13T06:22:12.318Z,3.95
2019-05-13T06:22:46.526Z,3.77
2019-05-13T06:23:22.177Z,3.45
2019-05-13T06:23:55.896Z,3.45
2019-05-13T06:24:31.213Z,3.00
2019-05-13T06:25:05.990Z,4.10
2019-05-13T06:25:42.521Z,3.47
2019-05-13T06:26:15.586Z,6.20
2019-05-13T06:26:49.269Z,4.05
2019-05-13T06:27:23.218Z,3.37
2019-05-13T06:27:57.225Z,3.70
2019-05-13T06:28:32.258Z,3.47
2019-05-13T06:29:06.402Z,3.60
2019-05-13T06:29:42.296Z,3.52
2019-05-13T06:30:16.671Z,3.87
2019-05-13T06:30:51.993Z,3.30
2019-05-13T06:31:26.220Z,3.83
2019-05-13T06:32:15.233Z,3.62
2019-05-13T06:32:35.682Z,3.85
2019-05-13T06:33:11.855Z,2.80
2019-05-13T06:33:45.050Z,3.10
2019-05-13T06:34:21.278Z,3.42
2019-05-13T06:34:54.918Z,3.25
2019-05-13T06:35:28.681Z,3.47
2019-05-13T06:36:03.650Z,3.75
2019-05-13T06:36:37.642Z,3.70
2019-05-13T06:37:11.774Z,3.40
2019-05-13T06:37:45.877Z,5.05
2019-05-13T06:38:22.325Z,3.30
2019-05-13T06:38:55.238Z,4.03
2019-05-13T06:39:31.440Z,3.80
2019-05-13T06:40:04.987Z,3.25
2019-05-13T06:40:38.751Z,3.80
2019-05-13T06:41:14.785Z,3.47
2019-05-13T06:41:48.113Z,4.35
2019-05-13T06:42:22.346Z,3.70
2019-05-13T06:42:56.557Z,4.70
2019-05-13T06:43:31.493Z,3.62
2019-05-13T06:44:05.745Z,3.70
2019-05-13T06:44:41.469Z,3.62
2019-05-13T06:45:15.354Z,2.70
2019-05-13T06:45:51.238Z,3.40
2019-05-13T06:46:24.768Z,3.25
2019-05-13T06:46:59.009Z,3.95
2019-05-13T06:47:36.098Z,4.10
2019-05-13T06:48:08.084Z,3.50
2019-05-13T06:48:42.041Z,3.45
2019-05-13T06:49:15.773Z,4.37
2019-05-13T06:49:51.627Z,3.20
2019-05-13T06:50:25.218Z,3.50
2019-05-13T06:50:58.951Z,4.17
2019-05-13T06:51:32.811Z,4.05
2019-05-13T06:52:06.810Z,3.12
2019-05-13T06:52:42.432Z,3.90
2019-05-13T06:53:16.102Z,3.72
2019-05-13T06:53:51.747Z,4.75
2019-05-13T06:54:25.412Z,5.55
2019-05-13T06:54:59.175Z,4.53
2019-05-13T06:55:33.403Z,5.80
2019-05-13T06:56:07.285Z,4.58
2019-05-13T06:56:42.818Z,5.10
2019-05-13T06:57:16.791Z,5.65
2019-05-13T06:57:51.678Z,4.58
2019-05-13T06:58:26.029Z,4.50
2019-05-13T06:59:01.469Z,4.62
2019-05-13T06:59:35.296Z,4.28
2019-05-13T07:00:11.997Z,4.80
2019-05-13T07:00:45.049Z,3.85
2019-05-13T07:01:18.731Z,4.42
2019-05-13T07:01:52.420Z,3.67
2019-05-13T07:02:26.300Z,3.95
2019-05-13T07:03:02.341Z,4.17
2019-05-13T07:03:35.853Z,4.40
2019-05-13T07:04:11.650Z,3.80
2019-05-13T07:04:45.501Z,4.30
2019-05-13T07:05:19.522Z,3.52
2019-05-13T07:05:53.418Z,4.60
2019-05-13T07:06:27.559Z,3.60
2019-05-13T07:07:12.267Z,3.98
2019-05-13T07:07:37.904Z,3.37
2019-05-13T07:08:12.118Z,3.33
2019-05-13T07:08:46.160Z,3.67
2019-05-13T07:09:21.617Z,3.75
2019-05-13T07:09:55.718Z,3.95
2019-05-13T07:10:31.916Z,3.90
2019-05-13T07:11:17.788Z,3.90
2019-05-13T07:11:41.770Z,3.47
2019-05-13T07:12:15.886Z,3.35
2019-05-13T07:12:51.962Z,3.72
2019-05-13T07:13:25.179Z,3.02
2019-05-13T07:13:59.091Z,3.58
2019-05-13T07:14:33.073Z,3.70
2019-05-13T07:15:07.256Z,3.10
2019-05-13T07:15:41.677Z,3.33
2019-05-13T07:16:16.002Z,2.90
2019-05-13T07:16:51.763Z,3.58
2019-05-13T07:17:25.405Z,3.50
2019-05-13T07:17:59.231Z,4.40
2019-05-13T07:18:32.910Z,3.80
2019-05-13T07:19:06.906Z,3.17
2019-05-13T07:19:41.712Z,4.25
2019-05-13T07:20:15.607Z,4.30
2019-05-13T07:20:49.574Z,3.87
2019-05-13T07:21:24.499Z,4.25
2019-05-13T07:21:58.182Z,3.50
2019-05-13T07:22:32.227Z,3.90
2019-05-13T07:23:06.410Z,4.00
2019-05-13T07:23:42.285Z,4.00
2019-05-13T07:24:15.861Z,4.95
2019-05-13T07:24:51.745Z,3.67
2019-05-13T07:25:24.963Z,3.85
2019-05-13T07:26:01.526Z,3.75
2019-05-13T07:26:34.428Z,4.25
2019-05-13T07:27:08.013Z,4.10
2019-05-13T07:27:42.513Z,3.85
2019-05-13T07:28:16.586Z,4.00
2019-05-13T07:28:52.361Z,3.30
2019-05-13T07:29:25.732Z,4.65
2019-05-13T07:30:01.972Z,3.20
2019-05-13T07:30:42.337Z,3.10
2019-05-13T07:31:16.118Z,4.17
2019-05-13T07:31:52.224Z,5.22
2019-05-13T07:32:25.791Z,3.25
2019-05-13T07:33:01.776Z,3.67
2019-05-13T07:33:35.758Z,3.75
2019-05-13T07:34:11.638Z,4.05
2019-05-13T07:34:45.043Z,3.00
2019-05-13T07:35:18.985Z,3.45
2019-05-13T07:35:58.177Z,4.45
2019-05-13T07:36:28.659Z,4.05
2019-05-13T07:37:02.767Z,3.80
2019-05-13T07:37:38.067Z,4.40
2019-05-13T07:38:12.025Z,4.15
2019-05-13T07:38:45.944Z,3.80
2019-05-13T07:39:22.190Z,4.05
2019-05-13T07:39:55.346Z,3.67
2019-05-13T07:40:29.269Z,3.55
2019-05-13T07:41:04.353Z,3.70
2019-05-13T07:41:39.744Z,4.40
2019-05-13T07:42:13.995Z,4.45
2019-05-13T07:42:52.250Z,3.83
2019-05-13T07:43:26.173Z,4.85
2019-05-13T07:44:02.310Z,4.12
2019-05-13T07:44:35.485Z,4.03
2019-05-13T07:45:11.530Z,4.80
2019-05-13T07:45:45.156Z,3.67
2019-05-13T07:46:21.626Z,4.35
2019-05-13T07:46:54.841Z,4.17
2019-05-13T07:47:31.241Z,4.05
2019-05-13T07:48:19.182Z,4.00
2019-05-13T07:48:41.565Z,3.95
2019-05-13T07:49:15.372Z,3.85
2019-05-13T07:49:51.370Z,3.70
2019-05-13T07:50:28.239Z,4.28
2019-05-13T07:51:04.607Z,3.62
2019-05-13T07:51:37.925Z,3.40
2019-05-13T07:52:12.742Z,3.15
2019-05-13T07:52:46.453Z,4.20
2019-05-13T07:53:22.225Z,4.28
2019-05-13T07:53:56.047Z,3.62
2019-05-13T07:54:32.598Z,3.95